sensor_id;sensor_type;location;lat;lon;timestamp;P1;durP1;ratioP1;P2;durP2;ratioP2
35290;SDS011;21411;50.024;19.220;2023-08-12T00:02:08;15.70;;;13.80;;
35290;SDS011;21411;50.024;19.220;2023-08-12T00:04:35;17.20;;;14.80;;
35290;SDS011;21411;50.024;19.220;2023-08-12T00:07:01;19.30;;;17.20;;
35290;SDS011;21411;50.024;19.220;2023-08-12T00:09:28;16.30;;;14.60;;
35290;SDS011;21411;50.024;19.220;2023-08-12T00:11:54;17.70;;;15.00;;
35290;SDS011;21411;50.024;19.220;2023-08-12T00:14:21;20.30;;;16.60;;
35290;SDS011;21411;50.024;19.220;2023-08-12T00:16:47;18.70;;;16.80;;
35290;SDS011;21411;50.024;19.220;2023-08-12T00:19:14;18.20;;;16.20;;
35290;SDS011;21411;50.024;19.220;2023-08-12T00:21:40;21.60;;;19.30;;
35290;SDS011;21411;50.024;19.220;2023-08-12T00:24:07;20.40;;;16.80;;
35290;SDS011;21411;50.024;19.220;2023-08-12T00:26:33;20.00;;;17.50;;
35290;SDS011;21411;50.024;19.220;2023-08-12T00:29:00;18.90;;;16.80;;
35290;SDS011;21411;50.024;19.220;2023-08-12T00:31:27;21.40;;;17.40;;
35290;SDS011;21411;50.024;19.220;2023-08-12T00:33:53;20.80;;;18.00;;
35290;SDS011;21411;50.024;19.220;2023-08-12T00:36:20;21.10;;;17.60;;
35290;SDS011;21411;50.024;19.220;2023-08-12T00:38:46;19.30;;;16.70;;
35290;SDS011;21411;50.024;19.220;2023-08-12T00:41:13;19.70;;;16.20;;
35290;SDS011;21411;50.024;19.220;2023-08-12T00:43:39;18.00;;;16.10;;
35290;SDS011;21411;50.024;19.220;2023-08-12T00:46:06;18.00;;;16.20;;
35290;SDS011;21411;50.024;19.220;2023-08-12T00:48:33;17.40;;;15.60;;
35290;SDS011;21411;50.024;19.220;2023-08-12T00:50:59;17.80;;;15.00;;
35290;SDS011;21411;50.024;19.220;2023-08-12T00:53:26;18.30;;;15.40;;
35290;SDS011;21411;50.024;19.220;2023-08-12T00:55:53;17.10;;;15.40;;
35290;SDS011;21411;50.024;19.220;2023-08-12T00:58:20;17.00;;;15.10;;
35290;SDS011;21411;50.024;19.220;2023-08-12T01:00:47;15.20;;;13.70;;
35290;SDS011;21411;50.024;19.220;2023-08-12T01:03:14;15.90;;;14.00;;
35290;SDS011;21411;50.024;19.220;2023-08-12T01:05:42;16.40;;;14.80;;
35290;SDS011;21411;50.024;19.220;2023-08-12T01:08:08;15.60;;;13.90;;
35290;SDS011;21411;50.024;19.220;2023-08-12T01:10:35;15.90;;;13.20;;
35290;SDS011;21411;50.024;19.220;2023-08-12T01:15:58;17.00;;;15.20;;
35290;SDS011;21411;50.024;19.220;2023-08-12T01:18:30;14.80;;;13.50;;
35290;SDS011;21411;50.024;19.220;2023-08-12T01:20:57;15.20;;;13.70;;
35290;SDS011;21411;50.024;19.220;2023-08-12T01:23:25;14.50;;;13.00;;
35290;SDS011;21411;50.024;19.220;2023-08-12T01:25:52;15.40;;;14.00;;
35290;SDS011;21411;50.024;19.220;2023-08-12T01:28:18;16.60;;;14.80;;
35290;SDS011;21411;50.024;19.220;2023-08-12T01:33:33;15.60;;;14.00;;
35290;SDS011;21411;50.024;19.220;2023-08-12T01:36:16;15.10;;;13.60;;
35290;SDS011;21411;50.024;19.220;2023-08-12T01:38:44;15.90;;;13.30;;
35290;SDS011;21411;50.024;19.220;2023-08-12T01:41:14;15.30;;;13.10;;
35290;SDS011;21411;50.024;19.220;2023-08-12T01:43:42;15.20;;;12.90;;
35290;SDS011;21411;50.024;19.220;2023-08-12T01:46:09;14.40;;;12.80;;
35290;SDS011;21411;50.024;19.220;2023-08-12T01:48:36;15.20;;;13.70;;
35290;SDS011;21411;50.024;19.220;2023-08-12T01:51:03;13.80;;;12.50;;
35290;SDS011;21411;50.024;19.220;2023-08-12T01:53:30;15.70;;;13.40;;
35290;SDS011;21411;50.024;19.220;2023-08-12T01:55:56;14.40;;;12.90;;
35290;SDS011;21411;50.024;19.220;2023-08-12T01:58:23;14.40;;;13.00;;
35290;SDS011;21411;50.024;19.220;2023-08-12T02:00:49;15.20;;;13.30;;
35290;SDS011;21411;50.024;19.220;2023-08-12T02:03:16;13.90;;;12.10;;
35290;SDS011;21411;50.024;19.220;2023-08-12T02:05:42;13.50;;;12.10;;
35290;SDS011;21411;50.024;19.220;2023-08-12T02:08:10;13.80;;;12.40;;
35290;SDS011;21411;50.024;19.220;2023-08-12T02:10:36;13.90;;;12.60;;
35290;SDS011;21411;50.024;19.220;2023-08-12T02:13:03;12.70;;;11.60;;
35290;SDS011;21411;50.024;19.220;2023-08-12T02:15:29;13.10;;;11.90;;
35290;SDS011;21411;50.024;19.220;2023-08-12T02:17:56;15.00;;;13.50;;
35290;SDS011;21411;50.024;19.220;2023-08-12T02:20:22;15.90;;;14.20;;
35290;SDS011;21411;50.024;19.220;2023-08-12T02:22:49;14.20;;;12.80;;
35290;SDS011;21411;50.024;19.220;2023-08-12T02:25:16;14.20;;;12.90;;
35290;SDS011;21411;50.024;19.220;2023-08-12T02:27:42;16.70;;;13.50;;
35290;SDS011;21411;50.024;19.220;2023-08-12T02:30:09;16.80;;;12.70;;
35290;SDS011;21411;50.024;19.220;2023-08-12T02:32:36;15.70;;;12.40;;
35290;SDS011;21411;50.024;19.220;2023-08-12T02:35:03;14.40;;;12.60;;
35290;SDS011;21411;50.024;19.220;2023-08-12T02:37:29;13.30;;;12.00;;
35290;SDS011;21411;50.024;19.220;2023-08-12T02:39:56;14.70;;;13.20;;
35290;SDS011;21411;50.024;19.220;2023-08-12T02:42:23;16.20;;;14.50;;
35290;SDS011;21411;50.024;19.220;2023-08-12T02:44:49;14.40;;;12.70;;
35290;SDS011;21411;50.024;19.220;2023-08-12T02:47:16;16.40;;;14.70;;
35290;SDS011;21411;50.024;19.220;2023-08-12T02:49:42;14.60;;;13.10;;
35290;SDS011;21411;50.024;19.220;2023-08-12T02:52:10;15.30;;;13.50;;
35290;SDS011;21411;50.024;19.220;2023-08-12T02:54:36;14.40;;;12.90;;
35290;SDS011;21411;50.024;19.220;2023-08-12T02:57:03;18.60;;;14.50;;
35290;SDS011;21411;50.024;19.220;2023-08-12T02:59:29;16.50;;;14.50;;
35290;SDS011;21411;50.024;19.220;2023-08-12T03:01:56;16.60;;;15.00;;
35290;SDS011;21411;50.024;19.220;2023-08-12T03:04:23;15.50;;;13.80;;
35290;SDS011;21411;50.024;19.220;2023-08-12T03:06:49;15.90;;;14.10;;
35290;SDS011;21411;50.024;19.220;2023-08-12T03:09:16;16.10;;;13.70;;
35290;SDS011;21411;50.024;19.220;2023-08-12T03:11:44;15.50;;;13.40;;
35290;SDS011;21411;50.024;19.220;2023-08-12T03:14:11;15.20;;;13.70;;
35290;SDS011;21411;50.024;19.220;2023-08-12T03:16:37;16.90;;;15.20;;
35290;SDS011;21411;50.024;19.220;2023-08-12T03:19:04;18.00;;;16.10;;
35290;SDS011;21411;50.024;19.220;2023-08-12T03:21:30;17.00;;;15.10;;
35290;SDS011;21411;50.024;19.220;2023-08-12T03:23:57;16.60;;;14.70;;
35290;SDS011;21411;50.024;19.220;2023-08-12T03:26:23;17.10;;;15.50;;
35290;SDS011;21411;50.024;19.220;2023-08-12T03:28:50;19.00;;;17.10;;
35290;SDS011;21411;50.024;19.220;2023-08-12T03:31:17;16.60;;;14.90;;
35290;SDS011;21411;50.024;19.220;2023-08-12T03:33:43;17.00;;;15.40;;
35290;SDS011;21411;50.024;19.220;2023-08-12T03:36:10;17.60;;;15.90;;
35290;SDS011;21411;50.024;19.220;2023-08-12T03:38:36;17.20;;;15.40;;
35290;SDS011;21411;50.024;19.220;2023-08-12T03:41:03;17.00;;;15.30;;
35290;SDS011;21411;50.024;19.220;2023-08-12T03:43:30;14.70;;;13.30;;
35290;SDS011;21411;50.024;19.220;2023-08-12T03:45:56;15.60;;;14.10;;
35290;SDS011;21411;50.024;19.220;2023-08-12T03:48:23;17.20;;;15.50;;
35290;SDS011;21411;50.024;19.220;2023-08-12T03:50:49;15.90;;;13.90;;
35290;SDS011;21411;50.024;19.220;2023-08-12T03:53:16;14.60;;;13.10;;
35290;SDS011;21411;50.024;19.220;2023-08-12T03:55:43;14.00;;;12.50;;
35290;SDS011;21411;50.024;19.220;2023-08-12T03:58:10;13.80;;;12.60;;
35290;SDS011;21411;50.024;19.220;2023-08-12T04:00:40;12.40;;;11.00;;
35290;SDS011;21411;50.024;19.220;2023-08-12T04:03:08;11.90;;;10.70;;
35290;SDS011;21411;50.024;19.220;2023-08-12T04:05:35;13.70;;;11.40;;
35290;SDS011;21411;50.024;19.220;2023-08-12T04:08:02;12.40;;;11.20;;
35290;SDS011;21411;50.024;19.220;2023-08-12T04:10:29;12.40;;;11.20;;
35290;SDS011;21411;50.024;19.220;2023-08-12T04:12:56;12.50;;;10.40;;
35290;SDS011;21411;50.024;19.220;2023-08-12T04:15:23;12.10;;;10.40;;
35290;SDS011;21411;50.024;19.220;2023-08-12T04:17:49;12.70;;;11.40;;
35290;SDS011;21411;50.024;19.220;2023-08-12T04:20:16;12.60;;;11.40;;
35290;SDS011;21411;50.024;19.220;2023-08-12T04:22:42;12.40;;;11.20;;
35290;SDS011;21411;50.024;19.220;2023-08-12T04:25:09;13.40;;;12.10;;
35290;SDS011;21411;50.024;19.220;2023-08-12T04:27:36;13.20;;;11.50;;
35290;SDS011;21411;50.024;19.220;2023-08-12T04:30:03;13.70;;;12.30;;
35290;SDS011;21411;50.024;19.220;2023-08-12T04:32:30;13.00;;;11.90;;
35290;SDS011;21411;50.024;19.220;2023-08-12T04:34:56;12.60;;;11.30;;
35290;SDS011;21411;50.024;19.220;2023-08-12T04:37:23;14.20;;;12.90;;
35290;SDS011;21411;50.024;19.220;2023-08-12T04:39:50;13.50;;;12.30;;
35290;SDS011;21411;50.024;19.220;2023-08-12T04:42:17;13.30;;;11.90;;
35290;SDS011;21411;50.024;19.220;2023-08-12T04:44:43;12.60;;;11.50;;
35290;SDS011;21411;50.024;19.220;2023-08-12T04:47:10;13.00;;;11.90;;
35290;SDS011;21411;50.024;19.220;2023-08-12T04:49:36;13.00;;;11.70;;
35290;SDS011;21411;50.024;19.220;2023-08-12T04:52:03;13.70;;;12.50;;
35290;SDS011;21411;50.024;19.220;2023-08-12T04:54:29;14.50;;;13.00;;
35290;SDS011;21411;50.024;19.220;2023-08-12T04:56:56;15.80;;;14.20;;
35290;SDS011;21411;50.024;19.220;2023-08-12T04:59:23;14.90;;;13.50;;
35290;SDS011;21411;50.024;19.220;2023-08-12T05:01:49;13.80;;;12.60;;
35290;SDS011;21411;50.024;19.220;2023-08-12T05:04:16;13.60;;;12.40;;
35290;SDS011;21411;50.024;19.220;2023-08-12T05:06:42;13.20;;;12.10;;
35290;SDS011;21411;50.024;19.220;2023-08-12T05:09:09;12.80;;;11.50;;
35290;SDS011;21411;50.024;19.220;2023-08-12T05:11:35;12.30;;;11.20;;
35290;SDS011;21411;50.024;19.220;2023-08-12T05:14:02;11.30;;;10.30;;
35290;SDS011;21411;50.024;19.220;2023-08-12T05:16:28;11.10;;;9.90;;
35290;SDS011;21411;50.024;19.220;2023-08-12T05:18:55;11.20;;;10.20;;
35290;SDS011;21411;50.024;19.220;2023-08-12T05:21:21;11.10;;;10.10;;
35290;SDS011;21411;50.024;19.220;2023-08-12T05:23:48;12.50;;;11.30;;
35290;SDS011;21411;50.024;19.220;2023-08-12T05:26:15;11.30;;;10.30;;
35290;SDS011;21411;50.024;19.220;2023-08-12T05:28:42;11.10;;;10.00;;
35290;SDS011;21411;50.024;19.220;2023-08-12T05:31:08;12.70;;;9.50;;
35290;SDS011;21411;50.024;19.220;2023-08-12T05:33:35;10.20;;;9.30;;
35290;SDS011;21411;50.024;19.220;2023-08-12T05:36:02;10.70;;;9.80;;
35290;SDS011;21411;50.024;19.220;2023-08-12T05:38:29;10.50;;;9.50;;
35290;SDS011;21411;50.024;19.220;2023-08-12T05:40:55;10.70;;;9.70;;
35290;SDS011;21411;50.024;19.220;2023-08-12T05:43:22;11.30;;;9.90;;
35290;SDS011;21411;50.024;19.220;2023-08-12T05:45:48;9.90;;;8.70;;
35290;SDS011;21411;50.024;19.220;2023-08-12T05:48:15;9.30;;;8.60;;
35290;SDS011;21411;50.024;19.220;2023-08-12T05:50:42;9.90;;;8.90;;
35290;SDS011;21411;50.024;19.220;2023-08-12T05:53:09;10.10;;;9.20;;
35290;SDS011;21411;50.024;19.220;2023-08-12T05:55:36;10.40;;;9.20;;
35290;SDS011;21411;50.024;19.220;2023-08-12T05:58:02;10.10;;;9.10;;
35290;SDS011;21411;50.024;19.220;2023-08-12T06:00:29;9.10;;;8.40;;
35290;SDS011;21411;50.024;19.220;2023-08-12T06:02:56;9.80;;;8.80;;
35290;SDS011;21411;50.024;19.220;2023-08-12T06:05:22;8.90;;;8.00;;
35290;SDS011;21411;50.024;19.220;2023-08-12T06:07:49;9.20;;;8.40;;
35290;SDS011;21411;50.024;19.220;2023-08-12T06:10:15;8.40;;;7.60;;
35290;SDS011;21411;50.024;19.220;2023-08-12T06:12:42;8.40;;;7.70;;
35290;SDS011;21411;50.024;19.220;2023-08-12T06:15:09;7.90;;;7.30;;
35290;SDS011;21411;50.024;19.220;2023-08-12T06:17:36;9.60;;;7.90;;
35290;SDS011;21411;50.024;19.220;2023-08-12T06:20:02;7.60;;;6.60;;
35290;SDS011;21411;50.024;19.220;2023-08-12T06:22:29;7.50;;;6.90;;
35290;SDS011;21411;50.024;19.220;2023-08-12T06:24:55;7.40;;;6.80;;
35290;SDS011;21411;50.024;19.220;2023-08-12T06:27:22;7.30;;;6.70;;
35290;SDS011;21411;50.024;19.220;2023-08-12T06:29:48;8.10;;;7.10;;
35290;SDS011;21411;50.024;19.220;2023-08-12T06:32:15;8.30;;;6.50;;
35290;SDS011;21411;50.024;19.220;2023-08-12T06:34:42;6.90;;;6.30;;
35290;SDS011;21411;50.024;19.220;2023-08-12T06:37:09;7.50;;;6.70;;
35290;SDS011;21411;50.024;19.220;2023-08-12T06:39:35;8.20;;;7.30;;
35290;SDS011;21411;50.024;19.220;2023-08-12T06:42:02;8.90;;;8.10;;
35290;SDS011;21411;50.024;19.220;2023-08-12T06:44:29;8.60;;;7.70;;
35290;SDS011;21411;50.024;19.220;2023-08-12T06:46:56;10.90;;;7.90;;
35290;SDS011;21411;50.024;19.220;2023-08-12T06:49:22;8.30;;;7.50;;
35290;SDS011;21411;50.024;19.220;2023-08-12T06:51:49;8.90;;;8.00;;
35290;SDS011;21411;50.024;19.220;2023-08-12T06:54:15;8.50;;;7.70;;
35290;SDS011;21411;50.024;19.220;2023-08-12T06:56:42;9.40;;;7.40;;
35290;SDS011;21411;50.024;19.220;2023-08-12T06:59:08;8.10;;;7.30;;
35290;SDS011;21411;50.024;19.220;2023-08-12T07:01:35;8.30;;;7.30;;
35290;SDS011;21411;50.024;19.220;2023-08-12T07:04:01;7.70;;;6.80;;
35290;SDS011;21411;50.024;19.220;2023-08-12T07:06:28;8.00;;;7.20;;
35290;SDS011;21411;50.024;19.220;2023-08-12T07:08:55;7.80;;;7.00;;
35290;SDS011;21411;50.024;19.220;2023-08-12T07:11:22;7.60;;;6.80;;
35290;SDS011;21411;50.024;19.220;2023-08-12T07:13:48;7.70;;;7.00;;
35290;SDS011;21411;50.024;19.220;2023-08-12T07:16:15;6.70;;;6.20;;
35290;SDS011;21411;50.024;19.220;2023-08-12T07:18:42;6.50;;;5.20;;
35290;SDS011;21411;50.024;19.220;2023-08-12T07:21:08;5.00;;;4.60;;
35290;SDS011;21411;50.024;19.220;2023-08-12T07:23:35;5.00;;;4.30;;
35290;SDS011;21411;50.024;19.220;2023-08-12T07:26:01;4.70;;;3.80;;
35290;SDS011;21411;50.024;19.220;2023-08-12T07:28:28;4.50;;;4.10;;
35290;SDS011;21411;50.024;19.220;2023-08-12T07:30:55;4.90;;;4.40;;
35290;SDS011;21411;50.024;19.220;2023-08-12T07:33:21;5.50;;;4.50;;
35290;SDS011;21411;50.024;19.220;2023-08-12T07:35:48;5.10;;;4.60;;
35290;SDS011;21411;50.024;19.220;2023-08-12T07:38:15;5.00;;;4.60;;
35290;SDS011;21411;50.024;19.220;2023-08-12T07:40:41;5.40;;;4.40;;
35290;SDS011;21411;50.024;19.220;2023-08-12T07:43:08;5.00;;;4.50;;
35290;SDS011;21411;50.024;19.220;2023-08-12T07:45:34;5.10;;;4.30;;
35290;SDS011;21411;50.024;19.220;2023-08-12T07:48:01;4.90;;;4.40;;
35290;SDS011;21411;50.024;19.220;2023-08-12T07:50:27;5.70;;;4.20;;
35290;SDS011;21411;50.024;19.220;2023-08-12T07:52:54;5.10;;;4.60;;
35290;SDS011;21411;50.024;19.220;2023-08-12T07:55:20;4.70;;;4.20;;
35290;SDS011;21411;50.024;19.220;2023-08-12T07:57:47;4.50;;;4.10;;
35290;SDS011;21411;50.024;19.220;2023-08-12T08:00:14;5.60;;;4.50;;
35290;SDS011;21411;50.024;19.220;2023-08-12T08:02:40;4.70;;;4.10;;
35290;SDS011;21411;50.024;19.220;2023-08-12T08:05:07;6.40;;;4.20;;
35290;SDS011;21411;50.024;19.220;2023-08-12T08:07:34;4.60;;;4.20;;
35290;SDS011;21411;50.024;19.220;2023-08-12T08:10:00;5.00;;;4.50;;
35290;SDS011;21411;50.024;19.220;2023-08-12T08:12:27;5.10;;;4.20;;
35290;SDS011;21411;50.024;19.220;2023-08-12T08:14:54;4.30;;;4.00;;
35290;SDS011;21411;50.024;19.220;2023-08-12T08:17:20;4.60;;;4.20;;
35290;SDS011;21411;50.024;19.220;2023-08-12T08:19:47;3.70;;;3.40;;
35290;SDS011;21411;50.024;19.220;2023-08-12T08:22:13;4.30;;;3.60;;
35290;SDS011;21411;50.024;19.220;2023-08-12T08:24:40;4.70;;;2.80;;
35290;SDS011;21411;50.024;19.220;2023-08-12T08:27:06;5.20;;;3.70;;
35290;SDS011;21411;50.024;19.220;2023-08-12T08:29:33;6.20;;;4.00;;
35290;SDS011;21411;50.024;19.220;2023-08-12T08:32:00;4.90;;;3.10;;
35290;SDS011;21411;50.024;19.220;2023-08-12T08:34:26;3.70;;;3.30;;
35290;SDS011;21411;50.024;19.220;2023-08-12T08:36:53;3.80;;;3.20;;
35290;SDS011;21411;50.024;19.220;2023-08-12T08:39:20;3.70;;;3.30;;
35290;SDS011;21411;50.024;19.220;2023-08-12T08:41:47;3.30;;;2.90;;
35290;SDS011;21411;50.024;19.220;2023-08-12T08:44:15;3.80;;;3.00;;
35290;SDS011;21411;50.024;19.220;2023-08-12T08:46:46;3.50;;;3.30;;
35290;SDS011;21411;50.024;19.220;2023-08-12T08:49:14;3.70;;;3.30;;
35290;SDS011;21411;50.024;19.220;2023-08-12T08:51:41;3.40;;;3.10;;
35290;SDS011;21411;50.024;19.220;2023-08-12T08:54:09;3.60;;;3.30;;
35290;SDS011;21411;50.024;19.220;2023-08-12T08:56:37;10.90;;;3.80;;
35290;SDS011;21411;50.024;19.220;2023-08-12T08:59:04;3.90;;;3.40;;
35290;SDS011;21411;50.024;19.220;2023-08-12T09:01:31;4.00;;;3.70;;
35290;SDS011;21411;50.024;19.220;2023-08-12T09:03:57;3.60;;;3.30;;
35290;SDS011;21411;50.024;19.220;2023-08-12T09:06:25;3.30;;;3.00;;
35290;SDS011;21411;50.024;19.220;2023-08-12T09:08:52;4.50;;;3.70;;
35290;SDS011;21411;50.024;19.220;2023-08-12T09:11:19;5.40;;;3.20;;
35290;SDS011;21411;50.024;19.220;2023-08-12T09:13:46;3.70;;;3.30;;
35290;SDS011;21411;50.024;19.220;2023-08-12T09:16:13;3.50;;;2.80;;
35290;SDS011;21411;50.024;19.220;2023-08-12T09:18:44;3.50;;;3.00;;
35290;SDS011;21411;50.024;19.220;2023-08-12T09:23:38;4.80;;;3.90;;
35290;SDS011;21411;50.024;19.220;2023-08-12T09:26:15;3.50;;;3.20;;
35290;SDS011;21411;50.024;19.220;2023-08-12T09:28:43;3.20;;;2.90;;
35290;SDS011;21411;50.024;19.220;2023-08-12T09:31:24;3.30;;;3.10;;
35290;SDS011;21411;50.024;19.220;2023-08-12T09:33:52;2.70;;;2.50;;
35290;SDS011;21411;50.024;19.220;2023-08-12T09:36:21;3.40;;;2.80;;
35290;SDS011;21411;50.024;19.220;2023-08-12T09:38:48;3.30;;;3.00;;
35290;SDS011;21411;50.024;19.220;2023-08-12T09:41:15;3.40;;;3.10;;
35290;SDS011;21411;50.024;19.220;2023-08-12T09:43:41;3.70;;;3.00;;
35290;SDS011;21411;50.024;19.220;2023-08-12T09:46:11;4.50;;;2.70;;
35290;SDS011;21411;50.024;19.220;2023-08-12T09:48:42;2.60;;;2.40;;
35290;SDS011;21411;50.024;19.220;2023-08-12T09:51:09;3.40;;;2.80;;
35290;SDS011;21411;50.024;19.220;2023-08-12T09:53:36;4.00;;;2.50;;
35290;SDS011;21411;50.024;19.220;2023-08-12T09:56:06;3.40;;;2.70;;
35290;SDS011;21411;50.024;19.220;2023-08-12T09:58:35;2.90;;;2.50;;
35290;SDS011;21411;50.024;19.220;2023-08-12T10:01:03;4.00;;;2.50;;
35290;SDS011;21411;50.024;19.220;2023-08-12T10:03:34;4.10;;;2.90;;
35290;SDS011;21411;50.024;19.220;2023-08-12T10:08:31;3.40;;;2.90;;
35290;SDS011;21411;50.024;19.220;2023-08-12T10:10:58;5.10;;;2.70;;
35290;SDS011;21411;50.024;19.220;2023-08-12T10:13:25;4.30;;;2.90;;
35290;SDS011;21411;50.024;19.220;2023-08-12T10:15:52;3.20;;;2.90;;
35290;SDS011;21411;50.024;19.220;2023-08-12T10:18:19;2.80;;;2.40;;
35290;SDS011;21411;50.024;19.220;2023-08-12T10:20:47;4.10;;;3.10;;
35290;SDS011;21411;50.024;19.220;2023-08-12T10:23:15;4.90;;;2.60;;
35290;SDS011;21411;50.024;19.220;2023-08-12T10:25:44;3.00;;;2.50;;
35290;SDS011;21411;50.024;19.220;2023-08-12T10:28:11;2.50;;;2.40;;
35290;SDS011;21411;50.024;19.220;2023-08-12T10:30:40;3.40;;;2.50;;
35290;SDS011;21411;50.024;19.220;2023-08-12T10:33:08;4.00;;;2.10;;
35290;SDS011;21411;50.024;19.220;2023-08-12T10:35:46;4.30;;;2.80;;
35290;SDS011;21411;50.024;19.220;2023-08-12T10:38:18;3.30;;;2.40;;
35290;SDS011;21411;50.024;19.220;2023-08-12T10:40:47;3.60;;;2.70;;
35290;SDS011;21411;50.024;19.220;2023-08-12T10:43:14;2.70;;;2.50;;
35290;SDS011;21411;50.024;19.220;2023-08-12T10:45:41;2.80;;;2.30;;
35290;SDS011;21411;50.024;19.220;2023-08-12T10:48:18;3.10;;;2.80;;
35290;SDS011;21411;50.024;19.220;2023-08-12T10:50:52;3.50;;;2.40;;
35290;SDS011;21411;50.024;19.220;2023-08-12T10:53:31;4.10;;;2.50;;
35290;SDS011;21411;50.024;19.220;2023-08-12T10:56:00;3.90;;;2.80;;
35290;SDS011;21411;50.024;19.220;2023-08-12T11:01:17;5.10;;;2.60;;
35290;SDS011;21411;50.024;19.220;2023-08-12T11:03:45;2.50;;;2.20;;
35290;SDS011;21411;50.024;19.220;2023-08-12T11:06:13;3.80;;;2.50;;
35290;SDS011;21411;50.024;19.220;2023-08-12T11:08:52;4.00;;;2.20;;
35290;SDS011;21411;50.024;19.220;2023-08-12T11:11:19;5.20;;;2.20;;
35290;SDS011;21411;50.024;19.220;2023-08-12T11:13:54;5.10;;;2.90;;
35290;SDS011;21411;50.024;19.220;2023-08-12T11:16:34;1.90;;;1.80;;
35290;SDS011;21411;50.024;19.220;2023-08-12T11:19:02;2.80;;;2.00;;
35290;SDS011;21411;50.024;19.220;2023-08-12T11:21:29;2.00;;;1.80;;
35290;SDS011;21411;50.024;19.220;2023-08-12T11:23:56;2.60;;;1.90;;
35290;SDS011;21411;50.024;19.220;2023-08-12T11:26:25;2.00;;;1.80;;
35290;SDS011;21411;50.024;19.220;2023-08-12T11:28:52;4.20;;;2.00;;
35290;SDS011;21411;50.024;19.220;2023-08-12T11:31:19;2.30;;;2.00;;
35290;SDS011;21411;50.024;19.220;2023-08-12T11:33:47;2.40;;;2.20;;
35290;SDS011;21411;50.024;19.220;2023-08-12T11:36:14;2.10;;;2.00;;
35290;SDS011;21411;50.024;19.220;2023-08-12T11:38:41;3.30;;;2.60;;
35290;SDS011;21411;50.024;19.220;2023-08-12T11:41:09;5.20;;;2.10;;
35290;SDS011;21411;50.024;19.220;2023-08-12T11:43:35;2.40;;;2.20;;
35290;SDS011;21411;50.024;19.220;2023-08-12T11:46:02;2.70;;;2.20;;
35290;SDS011;21411;50.024;19.220;2023-08-12T11:48:29;2.60;;;1.80;;
35290;SDS011;21411;50.024;19.220;2023-08-12T11:50:56;2.20;;;2.00;;
35290;SDS011;21411;50.024;19.220;2023-08-12T11:53:24;3.30;;;2.30;;
35290;SDS011;21411;50.024;19.220;2023-08-12T11:55:50;2.80;;;2.50;;
35290;SDS011;21411;50.024;19.220;2023-08-12T11:58:17;2.90;;;2.20;;
35290;SDS011;21411;50.024;19.220;2023-08-12T12:00:48;2.60;;;2.00;;
35290;SDS011;21411;50.024;19.220;2023-08-12T12:05:42;3.10;;;2.20;;
35290;SDS011;21411;50.024;19.220;2023-08-12T12:08:13;3.80;;;2.20;;
35290;SDS011;21411;50.024;19.220;2023-08-12T12:10:40;3.90;;;2.50;;
35290;SDS011;21411;50.024;19.220;2023-08-12T12:13:07;4.50;;;2.20;;
35290;SDS011;21411;50.024;19.220;2023-08-12T12:15:38;3.00;;;2.50;;
35290;SDS011;21411;50.024;19.220;2023-08-12T12:18:14;2.00;;;1.90;;
35290;SDS011;21411;50.024;19.220;2023-08-12T12:20:53;3.10;;;2.20;;
35290;SDS011;21411;50.024;19.220;2023-08-12T12:23:29;5.50;;;2.60;;
35290;SDS011;21411;50.024;19.220;2023-08-12T12:25:58;2.90;;;1.90;;
35290;SDS011;21411;50.024;19.220;2023-08-12T12:28:28;2.00;;;1.80;;
35290;SDS011;21411;50.024;19.220;2023-08-12T12:30:55;2.00;;;1.90;;
35290;SDS011;21411;50.024;19.220;2023-08-12T12:33:22;2.20;;;2.00;;
35290;SDS011;21411;50.024;19.220;2023-08-12T12:35:48;2.40;;;1.70;;
35290;SDS011;21411;50.024;19.220;2023-08-12T12:38:15;2.70;;;1.80;;
35290;SDS011;21411;50.024;19.220;2023-08-12T12:40:42;3.30;;;1.70;;
35290;SDS011;21411;50.024;19.220;2023-08-12T12:43:08;3.30;;;2.00;;
35290;SDS011;21411;50.024;19.220;2023-08-12T12:45:35;2.30;;;1.70;;
35290;SDS011;21411;50.024;19.220;2023-08-12T12:48:02;1.80;;;1.70;;
35290;SDS011;21411;50.024;19.220;2023-08-12T12:50:28;2.00;;;1.80;;
35290;SDS011;21411;50.024;19.220;2023-08-12T12:52:55;2.20;;;2.00;;
35290;SDS011;21411;50.024;19.220;2023-08-12T12:55:21;2.30;;;1.90;;
35290;SDS011;21411;50.024;19.220;2023-08-12T12:57:48;2.80;;;2.00;;
35290;SDS011;21411;50.024;19.220;2023-08-12T13:00:15;3.40;;;2.10;;
35290;SDS011;21411;50.024;19.220;2023-08-12T13:02:42;3.00;;;1.80;;
35290;SDS011;21411;50.024;19.220;2023-08-12T13:05:09;2.10;;;1.70;;
35290;SDS011;21411;50.024;19.220;2023-08-12T13:07:36;1.70;;;1.60;;
35290;SDS011;21411;50.024;19.220;2023-08-12T13:10:02;1.90;;;1.80;;
35290;SDS011;21411;50.024;19.220;2023-08-12T13:12:29;2.20;;;2.00;;
35290;SDS011;21411;50.024;19.220;2023-08-12T13:14:56;1.80;;;1.60;;
35290;SDS011;21411;50.024;19.220;2023-08-12T13:17:22;2.50;;;1.80;;
35290;SDS011;21411;50.024;19.220;2023-08-12T13:19:49;1.70;;;1.60;;
35290;SDS011;21411;50.024;19.220;2023-08-12T13:22:15;2.10;;;1.90;;
35290;SDS011;21411;50.024;19.220;2023-08-12T13:24:42;2.90;;;1.90;;
35290;SDS011;21411;50.024;19.220;2023-08-12T13:27:08;2.10;;;1.90;;
35290;SDS011;21411;50.024;19.220;2023-08-12T13:29:35;2.90;;;1.90;;
35290;SDS011;21411;50.024;19.220;2023-08-12T13:32:02;2.40;;;1.90;;
35290;SDS011;21411;50.024;19.220;2023-08-12T13:34:29;2.10;;;1.90;;
35290;SDS011;21411;50.024;19.220;2023-08-12T13:36:55;2.10;;;2.00;;
35290;SDS011;21411;50.024;19.220;2023-08-12T13:39:22;2.70;;;1.90;;
35290;SDS011;21411;50.024;19.220;2023-08-12T13:41:48;3.00;;;1.90;;
35290;SDS011;21411;50.024;19.220;2023-08-12T13:44:15;4.00;;;1.90;;
35290;SDS011;21411;50.024;19.220;2023-08-12T13:46:41;3.00;;;2.20;;
35290;SDS011;21411;50.024;19.220;2023-08-12T13:49:08;2.10;;;1.80;;
35290;SDS011;21411;50.024;19.220;2023-08-12T13:51:34;3.30;;;2.80;;
35290;SDS011;21411;50.024;19.220;2023-08-12T13:54:01;2.00;;;1.90;;
35290;SDS011;21411;50.024;19.220;2023-08-12T13:56:27;1.70;;;1.60;;
35290;SDS011;21411;50.024;19.220;2023-08-12T13:58:54;2.90;;;2.00;;
35290;SDS011;21411;50.024;19.220;2023-08-12T14:01:22;1.50;;;1.40;;
35290;SDS011;21411;50.024;19.220;2023-08-12T14:03:49;1.70;;;1.50;;
35290;SDS011;21411;50.024;19.220;2023-08-12T14:06:15;2.10;;;1.90;;
35290;SDS011;21411;50.024;19.220;2023-08-12T14:08:42;2.30;;;1.70;;
35290;SDS011;21411;50.024;19.220;2023-08-12T14:11:08;5.60;;;1.80;;
35290;SDS011;21411;50.024;19.220;2023-08-12T14:13:35;3.70;;;1.70;;
35290;SDS011;21411;50.024;19.220;2023-08-12T14:16:01;5.10;;;2.00;;
35290;SDS011;21411;50.024;19.220;2023-08-12T14:18:28;3.30;;;1.70;;
35290;SDS011;21411;50.024;19.220;2023-08-12T14:20:54;1.90;;;1.70;;
35290;SDS011;21411;50.024;19.220;2023-08-12T14:23:21;2.60;;;1.90;;
35290;SDS011;21411;50.024;19.220;2023-08-12T14:25:47;2.20;;;2.00;;
35290;SDS011;21411;50.024;19.220;2023-08-12T14:28:14;2.70;;;1.90;;
35290;SDS011;21411;50.024;19.220;2023-08-12T14:30:41;2.60;;;2.40;;
35290;SDS011;21411;50.024;19.220;2023-08-12T14:33:07;1.90;;;1.70;;
35290;SDS011;21411;50.024;19.220;2023-08-12T14:35:34;2.30;;;2.10;;
35290;SDS011;21411;50.024;19.220;2023-08-12T14:38:00;2.00;;;1.80;;
35290;SDS011;21411;50.024;19.220;2023-08-12T14:40:27;2.80;;;2.40;;